sensor_id;sensor_type;location;lat;lon;timestamp;temperature;humidity
8910;DHT22;4490;49.072;8.804;2023-02-04T00:01:34;8.50;99.90
8910;DHT22;4490;49.072;8.804;2023-02-04T00:04:00;8.60;99.90
8910;DHT22;4490;49.072;8.804;2023-02-04T00:06:25;8.60;99.90
8910;DHT22;4490;49.072;8.804;2023-02-04T00:08:51;8.60;99.90
8910;DHT22;4490;49.072;8.804;2023-02-04T00:11:17;8.60;99.90
8910;DHT22;4490;49.072;8.804;2023-02-04T00:13:42;8.60;99.90
8910;DHT22;4490;49.072;8.804;2023-02-04T00:16:08;8.70;99.90
8910;DHT22;4490;49.072;8.804;2023-02-04T00:18:33;8.70;99.90
8910;DHT22;4490;49.072;8.804;2023-02-04T00:20:59;8.70;99.90
8910;DHT22;4490;49.072;8.804;2023-02-04T00:23:25;8.70;99.90
8910;DHT22;4490;49.072;8.804;2023-02-04T00:25:50;8.70;99.90
8910;DHT22;4490;49.072;8.804;2023-02-04T00:28:16;8.70;99.90
8910;DHT22;4490;49.072;8.804;2023-02-04T00:30:41;8.70;99.90
8910;DHT22;4490;49.072;8.804;2023-02-04T00:33:07;8.60;99.90
8910;DHT22;4490;49.072;8.804;2023-02-04T00:35:32;8.60;99.90
8910;DHT22;4490;49.072;8.804;2023-02-04T00:37:58;8.70;99.90
8910;DHT22;4490;49.072;8.804;2023-02-04T00:40:24;8.70;99.90
8910;DHT22;4490;49.072;8.804;2023-02-04T00:42:49;8.70;99.90
8910;DHT22;4490;49.072;8.804;2023-02-04T00:45:15;8.70;99.90
8910;DHT22;4490;49.072;8.804;2023-02-04T00:47:41;8.70;99.90
8910;DHT22;4490;49.072;8.804;2023-02-04T00:50:06;8.70;99.90
8910;DHT22;4490;49.072;8.804;2023-02-04T00:52:32;8.70;99.90
8910;DHT22;4490;49.072;8.804;2023-02-04T00:54:58;8.80;99.90
8910;DHT22;4490;49.072;8.804;2023-02-04T00:57:23;8.70;99.90
8910;DHT22;4490;49.072;8.804;2023-02-04T00:59:49;8.70;99.90
8910;DHT22;4490;49.072;8.804;2023-02-04T01:02:14;8.70;99.90
8910;DHT22;4490;49.072;8.804;2023-02-04T01:04:40;8.70;99.90
8910;DHT22;4490;49.072;8.804;2023-02-04T01:07:06;8.70;99.90
8910;DHT22;4490;49.072;8.804;2023-02-04T01:09:31;8.70;99.90
8910;DHT22;4490;49.072;8.804;2023-02-04T01:11:58;8.70;99.90
8910;DHT22;4490;49.072;8.804;2023-02-04T01:14:24;8.70;99.90
8910;DHT22;4490;49.072;8.804;2023-02-04T01:16:49;8.70;99.90
8910;DHT22;4490;49.072;8.804;2023-02-04T01:19:15;8.70;99.90
8910;DHT22;4490;49.072;8.804;2023-02-04T01:21:40;8.70;99.90
8910;DHT22;4490;49.072;8.804;2023-02-04T01:24:06;8.70;99.90
8910;DHT22;4490;49.072;8.804;2023-02-04T01:26:32;8.70;99.90
8910;DHT22;4490;49.072;8.804;2023-02-04T01:28:57;8.70;99.90
8910;DHT22;4490;49.072;8.804;2023-02-04T01:31:23;8.70;99.90
8910;DHT22;4490;49.072;8.804;2023-02-04T01:33:49;8.80;99.90
8910;DHT22;4490;49.072;8.804;2023-02-04T01:36:14;8.80;99.90
8910;DHT22;4490;49.072;8.804;2023-02-04T01:38:46;8.80;99.90
8910;DHT22;4490;49.072;8.804;2023-02-04T01:41:12;8.80;99.90
8910;DHT22;4490;49.072;8.804;2023-02-04T01:43:38;8.80;99.90
8910;DHT22;4490;49.072;8.804;2023-02-04T01:46:03;8.70;99.90
8910;DHT22;4490;49.072;8.804;2023-02-04T01:48:30;8.80;99.90
8910;DHT22;4490;49.072;8.804;2023-02-04T01:51:04;8.80;99.90
8910;DHT22;4490;49.072;8.804;2023-02-04T01:53:30;8.80;99.90
8910;DHT22;4490;49.072;8.804;2023-02-04T01:55:57;8.80;99.90
8910;DHT22;4490;49.072;8.804;2023-02-04T01:58:23;8.70;99.90
8910;DHT22;4490;49.072;8.804;2023-02-04T02:00:49;8.70;99.90
8910;DHT22;4490;49.072;8.804;2023-02-04T02:03:15;8.70;99.90
8910;DHT22;4490;49.072;8.804;2023-02-04T02:05:51;8.60;99.90
8910;DHT22;4490;49.072;8.804;2023-02-04T02:08:18;8.60;99.90
8910;DHT22;4490;49.072;8.804;2023-02-04T02:10:46;8.50;99.90
8910;DHT22;4490;49.072;8.804;2023-02-04T02:13:15;8.50;99.90
8910;DHT22;4490;49.072;8.804;2023-02-04T02:15:41;8.50;99.90
8910;DHT22;4490;49.072;8.804;2023-02-04T02:18:07;8.50;99.90
8910;DHT22;4490;49.072;8.804;2023-02-04T02:20:33;8.50;99.90
8910;DHT22;4490;49.072;8.804;2023-02-04T02:23:22;8.50;99.90
8910;DHT22;4490;49.072;8.804;2023-02-04T02:25:50;8.50;99.90
8910;DHT22;4490;49.072;8.804;2023-02-04T02:28:19;8.40;99.90
8910;DHT22;4490;49.072;8.804;2023-02-04T02:30:46;8.50;99.90
8910;DHT22;4490;49.072;8.804;2023-02-04T02:33:15;8.50;99.90
8910;DHT22;4490;49.072;8.804;2023-02-04T02:35:43;8.50;99.90
8910;DHT22;4490;49.072;8.804;2023-02-04T02:38:12;8.50;99.90
8910;DHT22;4490;49.072;8.804;2023-02-04T02:40:38;8.50;99.90
8910;DHT22;4490;49.072;8.804;2023-02-04T02:43:04;8.50;99.90
8910;DHT22;4490;49.072;8.804;2023-02-04T02:45:31;8.50;99.90
8910;DHT22;4490;49.072;8.804;2023-02-04T02:47:59;8.50;99.90
8910;DHT22;4490;49.072;8.804;2023-02-04T02:50:29;8.50;99.90
8910;DHT22;4490;49.072;8.804;2023-02-04T02:52:55;8.40;99.90
8910;DHT22;4490;49.072;8.804;2023-02-04T02:55:23;8.40;99.90
8910;DHT22;4490;49.072;8.804;2023-02-04T02:57:50;8.40;99.90
8910;DHT22;4490;49.072;8.804;2023-02-04T03:00:25;8.40;99.90
8910;DHT22;4490;49.072;8.804;2023-02-04T03:03:05;8.40;99.90
8910;DHT22;4490;49.072;8.804;2023-02-04T03:05:36;8.40;99.90
8910;DHT22;4490;49.072;8.804;2023-02-04T03:08:04;8.40;99.90
8910;DHT22;4490;49.072;8.804;2023-02-04T03:10:30;8.40;99.90
8910;DHT22;4490;49.072;8.804;2023-02-04T03:12:56;8.40;99.90
8910;DHT22;4490;49.072;8.804;2023-02-04T03:15:21;8.40;99.90
8910;DHT22;4490;49.072;8.804;2023-02-04T03:17:47;8.30;99.90
8910;DHT22;4490;49.072;8.804;2023-02-04T03:20:15;8.30;99.90
8910;DHT22;4490;49.072;8.804;2023-02-04T03:22:40;8.30;99.90
8910;DHT22;4490;49.072;8.804;2023-02-04T03:25:06;8.30;99.90
8910;DHT22;4490;49.072;8.804;2023-02-04T03:27:32;8.30;99.90
8910;DHT22;4490;49.072;8.804;2023-02-04T03:29:58;8.20;99.90
8910;DHT22;4490;49.072;8.804;2023-02-04T03:32:23;8.20;99.90
8910;DHT22;4490;49.072;8.804;2023-02-04T03:34:49;8.20;99.90
8910;DHT22;4490;49.072;8.804;2023-02-04T03:37:15;8.20;99.90
8910;DHT22;4490;49.072;8.804;2023-02-04T03:39:40;8.20;99.90
8910;DHT22;4490;49.072;8.804;2023-02-04T03:42:06;8.10;99.90
8910;DHT22;4490;49.072;8.804;2023-02-04T03:44:31;8.10;99.90
8910;DHT22;4490;49.072;8.804;2023-02-04T03:46:57;8.10;99.90
8910;DHT22;4490;49.072;8.804;2023-02-04T03:49:24;8.10;99.90
8910;DHT22;4490;49.072;8.804;2023-02-04T03:51:50;8.10;99.90
8910;DHT22;4490;49.072;8.804;2023-02-04T03:54:16;8.10;99.90
8910;DHT22;4490;49.072;8.804;2023-02-04T03:56:41;8.00;99.90
8910;DHT22;4490;49.072;8.804;2023-02-04T03:59:07;8.00;99.90
8910;DHT22;4490;49.072;8.804;2023-02-04T04:01:33;8.00;99.90
8910;DHT22;4490;49.072;8.804;2023-02-04T04:03:58;8.00;99.90
8910;DHT22;4490;49.072;8.804;2023-02-04T04:06:24;8.00;99.90
8910;DHT22;4490;49.072;8.804;2023-02-04T04:08:49;8.00;99.90
8910;DHT22;4490;49.072;8.804;2023-02-04T04:11:15;8.00;99.90
8910;DHT22;4490;49.072;8.804;2023-02-04T04:13:41;8.00;99.90
8910;DHT22;4490;49.072;8.804;2023-02-04T04:16:07;8.00;99.90
8910;DHT22;4490;49.072;8.804;2023-02-04T04:18:34;8.00;99.90
8910;DHT22;4490;49.072;8.804;2023-02-04T04:20:59;7.90;99.90
8910;DHT22;4490;49.072;8.804;2023-02-04T04:23:25;7.90;99.90
8910;DHT22;4490;49.072;8.804;2023-02-04T04:25:51;7.90;99.90
8910;DHT22;4490;49.072;8.804;2023-02-04T04:28:17;7.90;99.90
8910;DHT22;4490;49.072;8.804;2023-02-04T04:30:43;7.90;99.90
8910;DHT22;4490;49.072;8.804;2023-02-04T04:33:08;7.90;99.90
8910;DHT22;4490;49.072;8.804;2023-02-04T04:35:34;7.90;99.90
8910;DHT22;4490;49.072;8.804;2023-02-04T04:38:02;7.90;99.90
8910;DHT22;4490;49.072;8.804;2023-02-04T04:40:29;7.90;99.90
8910;DHT22;4490;49.072;8.804;2023-02-04T04:42:55;7.90;99.90
8910;DHT22;4490;49.072;8.804;2023-02-04T04:45:20;7.90;99.90
8910;DHT22;4490;49.072;8.804;2023-02-04T04:47:46;7.90;99.90
8910;DHT22;4490;49.072;8.804;2023-02-04T04:50:12;7.90;99.90
8910;DHT22;4490;49.072;8.804;2023-02-04T04:52:38;7.90;99.90
8910;DHT22;4490;49.072;8.804;2023-02-04T04:55:04;7.90;99.90
8910;DHT22;4490;49.072;8.804;2023-02-04T04:57:30;7.90;99.90
8910;DHT22;4490;49.072;8.804;2023-02-04T04:59:56;7.90;99.90
8910;DHT22;4490;49.072;8.804;2023-02-04T05:02:21;7.90;99.90
8910;DHT22;4490;49.072;8.804;2023-02-04T05:04:47;7.90;99.90
8910;DHT22;4490;49.072;8.804;2023-02-04T05:07:13;7.90;99.90
8910;DHT22;4490;49.072;8.804;2023-02-04T05:09:38;7.90;99.90
8910;DHT22;4490;49.072;8.804;2023-02-04T05:12:04;8.00;99.90
8910;DHT22;4490;49.072;8.804;2023-02-04T05:14:30;8.00;99.90
8910;DHT22;4490;49.072;8.804;2023-02-04T05:16:56;8.00;99.90
8910;DHT22;4490;49.072;8.804;2023-02-04T05:19:21;8.00;99.90
8910;DHT22;4490;49.072;8.804;2023-02-04T05:21:47;8.00;99.90
8910;DHT22;4490;49.072;8.804;2023-02-04T05:24:12;8.00;99.90
8910;DHT22;4490;49.072;8.804;2023-02-04T05:26:38;8.00;99.90
8910;DHT22;4490;49.072;8.804;2023-02-04T05:29:03;8.00;99.90
8910;DHT22;4490;49.072;8.804;2023-02-04T05:31:30;7.90;99.90
8910;DHT22;4490;49.072;8.804;2023-02-04T05:33:55;7.90;99.90
8910;DHT22;4490;49.072;8.804;2023-02-04T05:36:21;7.90;99.90
8910;DHT22;4490;49.072;8.804;2023-02-04T05:38:47;7.90;99.90
8910;DHT22;4490;49.072;8.804;2023-02-04T05:41:12;7.90;99.90
8910;DHT22;4490;49.072;8.804;2023-02-04T05:43:38;7.90;99.90
8910;DHT22;4490;49.072;8.804;2023-02-04T05:46:04;7.90;99.90
8910;DHT22;4490;49.072;8.804;2023-02-04T05:48:30;7.90;99.90
8910;DHT22;4490;49.072;8.804;2023-02-04T05:50:55;7.80;99.90
8910;DHT22;4490;49.072;8.804;2023-02-04T05:53:21;7.80;99.90
8910;DHT22;4490;49.072;8.804;2023-02-04T05:55:46;7.70;99.90
8910;DHT22;4490;49.072;8.804;2023-02-04T05:58:12;7.70;99.90
8910;DHT22;4490;49.072;8.804;2023-02-04T06:00:38;7.70;99.90
8910;DHT22;4490;49.072;8.804;2023-02-04T06:03:03;7.70;99.90
8910;DHT22;4490;49.072;8.804;2023-02-04T06:05:29;7.70;99.90
8910;DHT22;4490;49.072;8.804;2023-02-04T06:07:55;7.70;99.90
8910;DHT22;4490;49.072;8.804;2023-02-04T06:10:20;7.60;99.90
8910;DHT22;4490;49.072;8.804;2023-02-04T06:12:47;7.60;99.90
8910;DHT22;4490;49.072;8.804;2023-02-04T06:15:12;7.60;99.90
8910;DHT22;4490;49.072;8.804;2023-02-04T06:17:38;7.50;99.90
8910;DHT22;4490;49.072;8.804;2023-02-04T06:20:04;7.50;99.90
8910;DHT22;4490;49.072;8.804;2023-02-04T06:22:30;7.40;99.90
8910;DHT22;4490;49.072;8.804;2023-02-04T06:24:56;7.40;99.90
8910;DHT22;4490;49.072;8.804;2023-02-04T06:27:22;7.40;99.90
8910;DHT22;4490;49.072;8.804;2023-02-04T06:29:52;7.30;99.90
8910;DHT22;4490;49.072;8.804;2023-02-04T06:32:18;7.30;99.90
8910;DHT22;4490;49.072;8.804;2023-02-04T06:34:44;7.30;99.90
8910;DHT22;4490;49.072;8.804;2023-02-04T06:37:10;7.30;99.90
8910;DHT22;4490;49.072;8.804;2023-02-04T06:39:36;7.20;99.90
8910;DHT22;4490;49.072;8.804;2023-02-04T06:42:01;7.20;99.90
8910;DHT22;4490;49.072;8.804;2023-02-04T06:44:27;7.20;99.90
8910;DHT22;4490;49.072;8.804;2023-02-04T06:46:52;7.10;99.90
8910;DHT22;4490;49.072;8.804;2023-02-04T06:49:18;7.10;99.90
8910;DHT22;4490;49.072;8.804;2023-02-04T06:51:44;7.10;99.90
8910;DHT22;4490;49.072;8.804;2023-02-04T06:54:09;7.10;99.90
8910;DHT22;4490;49.072;8.804;2023-02-04T06:56:35;7.10;99.90
8910;DHT22;4490;49.072;8.804;2023-02-04T06:59:01;7.10;99.90
8910;DHT22;4490;49.072;8.804;2023-02-04T07:01:27;7.10;99.90
8910;DHT22;4490;49.072;8.804;2023-02-04T07:03:53;7.10;99.90
8910;DHT22;4490;49.072;8.804;2023-02-04T07:06:18;7.10;99.90
8910;DHT22;4490;49.072;8.804;2023-02-04T07:08:44;7.00;99.90
8910;DHT22;4490;49.072;8.804;2023-02-04T07:11:11;7.00;99.90
8910;DHT22;4490;49.072;8.804;2023-02-04T07:13:36;7.00;99.90
8910;DHT22;4490;49.072;8.804;2023-02-04T07:16:02;7.00;99.90
8910;DHT22;4490;49.072;8.804;2023-02-04T07:18:28;7.00;99.90
8910;DHT22;4490;49.072;8.804;2023-02-04T07:20:53;7.00;99.90
8910;DHT22;4490;49.072;8.804;2023-02-04T07:23:19;7.00;99.90
8910;DHT22;4490;49.072;8.804;2023-02-04T07:25:44;7.00;99.90
8910;DHT22;4490;49.072;8.804;2023-02-04T07:28:10;7.00;99.90
8910;DHT22;4490;49.072;8.804;2023-02-04T07:30:36;7.10;99.90
8910;DHT22;4490;49.072;8.804;2023-02-04T07:33:01;7.10;99.90
8910;DHT22;4490;49.072;8.804;2023-02-04T07:35:27;7.10;99.90
8910;DHT22;4490;49.072;8.804;2023-02-04T07:37:53;7.10;99.90
8910;DHT22;4490;49.072;8.804;2023-02-04T07:40:18;7.10;99.90
8910;DHT22;4490;49.072;8.804;2023-02-04T07:42:44;7.10;99.90
8910;DHT22;4490;49.072;8.804;2023-02-04T07:45:10;7.10;99.90
8910;DHT22;4490;49.072;8.804;2023-02-04T07:47:35;7.10;99.90
8910;DHT22;4490;49.072;8.804;2023-02-04T07:50:01;7.10;99.90
8910;DHT22;4490;49.072;8.804;2023-02-04T07:52:26;7.10;99.90
8910;DHT22;4490;49.072;8.804;2023-02-04T07:54:52;7.20;99.90
8910;DHT22;4490;49.072;8.804;2023-02-04T07:57:18;7.20;99.90
8910;DHT22;4490;49.072;8.804;2023-02-04T07:59:44;7.20;99.90
8910;DHT22;4490;49.072;8.804;2023-02-04T08:02:10;7.20;99.90
8910;DHT22;4490;49.072;8.804;2023-02-04T08:04:35;7.20;99.90
8910;DHT22;4490;49.072;8.804;2023-02-04T08:07:03;7.30;99.90
8910;DHT22;4490;49.072;8.804;2023-02-04T08:09:28;7.30;99.90
8910;DHT22;4490;49.072;8.804;2023-02-04T08:11:54;7.30;99.90
8910;DHT22;4490;49.072;8.804;2023-02-04T08:14:19;7.40;99.90
8910;DHT22;4490;49.072;8.804;2023-02-04T08:16:45;7.40;99.90
8910;DHT22;4490;49.072;8.804;2023-02-04T08:19:11;7.50;99.90
8910;DHT22;4490;49.072;8.804;2023-02-04T08:21:43;7.60;99.90
8910;DHT22;4490;49.072;8.804;2023-02-04T08:24:09;7.60;99.90
8910;DHT22;4490;49.072;8.804;2023-02-04T08:26:35;7.70;99.90
8910;DHT22;4490;49.072;8.804;2023-02-04T08:29:00;7.80;99.90
8910;DHT22;4490;49.072;8.804;2023-02-04T08:31:26;7.80;99.90
8910;DHT22;4490;49.072;8.804;2023-02-04T08:33:51;7.90;99.90
8910;DHT22;4490;49.072;8.804;2023-02-04T08:36:17;8.00;99.90
8910;DHT22;4490;49.072;8.804;2023-02-04T08:38:42;8.10;99.90
8910;DHT22;4490;49.072;8.804;2023-02-04T08:41:09;8.10;99.90
8910;DHT22;4490;49.072;8.804;2023-02-04T08:43:35;8.20;99.90
8910;DHT22;4490;49.072;8.804;2023-02-04T08:46:01;8.30;99.90
8910;DHT22;4490;49.072;8.804;2023-02-04T08:48:27;8.30;99.90
8910;DHT22;4490;49.072;8.804;2023-02-04T08:50:52;8.40;99.90
8910;DHT22;4490;49.072;8.804;2023-02-04T08:53:18;8.50;99.90
8910;DHT22;4490;49.072;8.804;2023-02-04T08:55:44;8.60;99.90
8910;DHT22;4490;49.072;8.804;2023-02-04T08:58:09;8.60;99.90
8910;DHT22;4490;49.072;8.804;2023-02-04T09:00:35;8.70;99.90
8910;DHT22;4490;49.072;8.804;2023-02-04T09:03:00;8.70;99.90
8910;DHT22;4490;49.072;8.804;2023-02-04T09:05:26;8.70;99.90
8910;DHT22;4490;49.072;8.804;2023-02-04T09:07:52;8.80;99.90
8910;DHT22;4490;49.072;8.804;2023-02-04T09:10:17;8.80;99.90
8910;DHT22;4490;49.072;8.804;2023-02-04T09:12:43;8.80;99.90
8910;DHT22;4490;49.072;8.804;2023-02-04T09:15:10;8.90;99.90
8910;DHT22;4490;49.072;8.804;2023-02-04T09:17:36;8.90;99.90
8910;DHT22;4490;49.072;8.804;2023-02-04T09:20:03;9.00;99.90
8910;DHT22;4490;49.072;8.804;2023-02-04T09:22:29;9.10;99.90
8910;DHT22;4490;49.072;8.804;2023-02-04T09:24:54;9.10;99.90
8910;DHT22;4490;49.072;8.804;2023-02-04T09:27:20;9.10;99.90
8910;DHT22;4490;49.072;8.804;2023-02-04T09:29:46;9.10;99.90
8910;DHT22;4490;49.072;8.804;2023-02-04T09:32:11;9.10;99.90
8910;DHT22;4490;49.072;8.804;2023-02-04T09:34:37;9.10;99.90
8910;DHT22;4490;49.072;8.804;2023-02-04T09:37:03;9.10;99.90
8910;DHT22;4490;49.072;8.804;2023-02-04T09:39:28;9.10;99.90
8910;DHT22;4490;49.072;8.804;2023-02-04T09:41:54;9.10;99.90
8910;DHT22;4490;49.072;8.804;2023-02-04T09:44:23;9.10;99.90
8910;DHT22;4490;49.072;8.804;2023-02-04T09:46:52;9.10;99.90
8910;DHT22;4490;49.072;8.804;2023-02-04T09:49:18;9.10;99.90
8910;DHT22;4490;49.072;8.804;2023-02-04T09:51:45;9.10;99.90
8910;DHT22;4490;49.072;8.804;2023-02-04T09:54:17;9.10;99.90
8910;DHT22;4490;49.072;8.804;2023-02-04T09:56:44;9.10;99.90
8910;DHT22;4490;49.072;8.804;2023-02-04T09:59:14;9.20;99.90
8910;DHT22;4490;49.072;8.804;2023-02-04T10:01:40;9.20;99.90
8910;DHT22;4490;49.072;8.804;2023-02-04T10:04:11;9.20;99.90
8910;DHT22;4490;49.072;8.804;2023-02-04T10:06:38;9.20;99.90
8910;DHT22;4490;49.072;8.804;2023-02-04T10:09:04;9.20;99.90
8910;DHT22;4490;49.072;8.804;2023-02-04T10:11:33;9.20;99.90
8910;DHT22;4490;49.072;8.804;2023-02-04T10:14:00;9.20;99.90
8910;DHT22;4490;49.072;8.804;2023-02-04T10:16:31;9.20;99.90
8910;DHT22;4490;49.072;8.804;2023-02-04T10:19:05;9.20;99.90
8910;DHT22;4490;49.072;8.804;2023-02-04T10:21:33;9.30;99.90
8910;DHT22;4490;49.072;8.804;2023-02-04T10:24:03;9.30;99.90
8910;DHT22;4490;49.072;8.804;2023-02-04T10:26:31;9.40;99.90
8910;DHT22;4490;49.072;8.804;2023-02-04T10:29:04;9.40;99.90
8910;DHT22;4490;49.072;8.804;2023-02-04T10:31:34;9.50;99.90
8910;DHT22;4490;49.072;8.804;2023-02-04T10:34:14;9.60;99.90
8910;DHT22;4490;49.072;8.804;2023-02-04T10:36:43;9.70;99.90
8910;DHT22;4490;49.072;8.804;2023-02-04T10:39:12;9.70;99.90
8910;DHT22;4490;49.072;8.804;2023-02-04T10:41:44;9.70;99.90
8910;DHT22;4490;49.072;8.804;2023-02-04T10:44:11;9.70;99.90
8910;DHT22;4490;49.072;8.804;2023-02-04T10:46:37;9.70;99.90
8910;DHT22;4490;49.072;8.804;2023-02-04T10:49:04;9.70;99.90
8910;DHT22;4490;49.072;8.804;2023-02-04T10:51:30;9.70;99.90
8910;DHT22;4490;49.072;8.804;2023-02-04T10:53:56;9.70;99.90
8910;DHT22;4490;49.072;8.804;2023-02-04T10:56:39;9.70;99.90
8910;DHT22;4490;49.072;8.804;2023-02-04T10:59:16;9.70;99.90
8910;DHT22;4490;49.072;8.804;2023-02-04T11:01:45;9.60;99.90
8910;DHT22;4490;49.072;8.804;2023-02-04T11:04:10;9.60;99.90
8910;DHT22;4490;49.072;8.804;2023-02-04T11:06:36;9.50;99.90
8910;DHT22;4490;49.072;8.804;2023-02-04T11:09:02;9.40;99.90
8910;DHT22;4490;49.072;8.804;2023-02-04T11:11:28;9.40;99.90
8910;DHT22;4490;49.072;8.804;2023-02-04T11:16:23;9.30;99.90
8910;DHT22;4490;49.072;8.804;2023-02-04T11:18:54;9.30;99.90
8910;DHT22;4490;49.072;8.804;2023-02-04T11:26:34;9.20;99.90
8910;DHT22;4490;49.072;8.804;2023-02-04T11:39:36;9.30;99.90
8910;DHT22;4490;49.072;8.804;2023-02-04T11:42:04;9.30;99.90
8910;DHT22;4490;49.072;8.804;2023-02-04T11:44:31;9.30;99.90
8910;DHT22;4490;49.072;8.804;2023-02-04T11:46:57;9.30;99.90
8910;DHT22;4490;49.072;8.804;2023-02-04T11:49:25;9.40;99.90
8910;DHT22;4490;49.072;8.804;2023-02-04T11:51:50;9.50;99.90
8910;DHT22;4490;49.072;8.804;2023-02-04T11:54:26;9.50;99.90
8910;DHT22;4490;49.072;8.804;2023-02-04T11:56:52;9.60;99.90
8910;DHT22;4490;49.072;8.804;2023-02-04T11:59:23;9.70;99.90
8910;DHT22;4490;49.072;8.804;2023-02-04T12:01:49;9.70;99.90
8910;DHT22;4490;49.072;8.804;2023-02-04T12:04:23;9.80;99.90
8910;DHT22;4490;49.072;8.804;2023-02-04T12:07:02;9.90;99.90
8910;DHT22;4490;49.072;8.804;2023-02-04T12:09:29;10.00;99.90
8910;DHT22;4490;49.072;8.804;2023-02-04T12:11:58;10.10;99.90
8910;DHT22;4490;49.072;8.804;2023-02-04T12:14:30;10.10;99.90
8910;DHT22;4490;49.072;8.804;2023-02-04T12:16:56;10.10;99.90
8910;DHT22;4490;49.072;8.804;2023-02-04T12:19:22;10.20;99.90
8910;DHT22;4490;49.072;8.804;2023-02-04T12:21:47;10.20;99.40
8910;DHT22;4490;49.072;8.804;2023-02-04T12:24:13;10.20;99.70
8910;DHT22;4490;49.072;8.804;2023-02-04T12:26:39;10.20;99.90
8910;DHT22;4490;49.072;8.804;2023-02-04T12:29:04;10.10;98.90
8910;DHT22;4490;49.072;8.804;2023-02-04T12:31:30;10.10;97.60
8910;DHT22;4490;49.072;8.804;2023-02-04T12:33:57;10.20;96.90
8910;DHT22;4490;49.072;8.804;2023-02-04T12:36:23;10.20;97.30
8910;DHT22;4490;49.072;8.804;2023-02-04T12:38:49;10.20;96.80
8910;DHT22;4490;49.072;8.804;2023-02-04T12:41:14;10.30;96.20
8910;DHT22;4490;49.072;8.804;2023-02-04T12:43:40;10.30;95.00
8910;DHT22;4490;49.072;8.804;2023-02-04T12:46:06;10.40;94.70
8910;DHT22;4490;49.072;8.804;2023-02-04T12:48:31;10.40;94.80
8910;DHT22;4490;49.072;8.804;2023-02-04T12:50:57;10.50;92.30
8910;DHT22;4490;49.072;8.804;2023-02-04T12:53:22;10.60;92.80
8910;DHT22;4490;49.072;8.804;2023-02-04T12:55:48;10.60;93.40
8910;DHT22;4490;49.072;8.804;2023-02-04T12:58:14;10.70;94.40
8910;DHT22;4490;49.072;8.804;2023-02-04T13:00:39;10.60;95.50
8910;DHT22;4490;49.072;8.804;2023-02-04T13:03:06;10.50;95.00
8910;DHT22;4490;49.072;8.804;2023-02-04T13:05:32;10.40;95.30
8910;DHT22;4490;49.072;8.804;2023-02-04T13:08:00;10.30;95.30
8910;DHT22;4490;49.072;8.804;2023-02-04T13:10:26;10.20;96.10
8910;DHT22;4490;49.072;8.804;2023-02-04T13:12:51;10.00;96.70
8910;DHT22;4490;49.072;8.804;2023-02-04T13:15:17;9.90;97.50
8910;DHT22;4490;49.072;8.804;2023-02-04T13:17:43;9.80;98.50
8910;DHT22;4490;49.072;8.804;2023-02-04T13:20:09;9.80;99.50
8910;DHT22;4490;49.072;8.804;2023-02-04T13:22:35;9.70;99.40
8910;DHT22;4490;49.072;8.804;2023-02-04T13:25:00;9.70;99.90
8910;DHT22;4490;49.072;8.804;2023-02-04T13:27:26;9.60;99.90
8910;DHT22;4490;49.072;8.804;2023-02-04T13:29:52;9.60;99.90
8910;DHT22;4490;49.072;8.804;2023-02-04T13:32:18;9.60;99.90
8910;DHT22;4490;49.072;8.804;2023-02-04T13:34:43;9.60;99.90
8910;DHT22;4490;49.072;8.804;2023-02-04T13:37:09;9.60;99.90
8910;DHT22;4490;49.072;8.804;2023-02-04T13:39:35;9.50;99.90
8910;DHT22;4490;49.072;8.804;2023-02-04T13:42:00;9.50;99.90
8910;DHT22;4490;49.072;8.804;2023-02-04T13:44:26;9.60;99.90
8910;DHT22;4490;49.072;8.804;2023-02-04T13:46:51;9.70;99.90
8910;DHT22;4490;49.072;8.804;2023-02-04T13:49:17;9.90;99.90
8910;DHT22;4490;49.072;8.804;2023-02-04T13:51:43;10.10;99.90
8910;DHT22;4490;49.072;8.804;2023-02-04T13:54:09;10.20;99.90
8910;DHT22;4490;49.072;8.804;2023-02-04T13:56:34;10.30;97.70
8910;DHT22;4490;49.072;8.804;2023-02-04T13:59:02;10.40;96.90
8910;DHT22;4490;49.072;8.804;2023-02-04T14:01:27;10.40;95.20
8910;DHT22;4490;49.072;8.804;2023-02-04T14:03:53;10.40;95.00
8910;DHT22;4490;49.072;8.804;2023-02-04T14:06:18;10.30;93.90
8910;DHT22;4490;49.072;8.804;2023-02-04T14:08:46;10.30;94.60
8910;DHT22;4490;49.072;8.804;2023-02-04T14:11:12;10.20;94.20
8910;DHT22;4490;49.072;8.804;2023-02-04T14:13:38;10.10;94.10
8910;DHT22;4490;49.072;8.804;2023-02-04T14:16:04;10.10;94.10
8910;DHT22;4490;49.072;8.804;2023-02-04T14:18:30;10.00;94.00
8910;DHT22;4490;49.072;8.804;2023-02-04T14:20:56;9.90;94.70
8910;DHT22;4490;49.072;8.804;2023-02-04T14:23:21;9.90;95.10
8910;DHT22;4490;49.072;8.804;2023-02-04T14:25:48;9.80;94.80
8910;DHT22;4490;49.072;8.804;2023-02-04T14:28:13;9.80;95.50
8910;DHT22;4490;49.072;8.804;2023-02-04T14:30:39;9.80;96.80
8910;DHT22;4490;49.072;8.804;2023-02-04T14:33:05;9.90;96.40
8910;DHT22;4490;49.072;8.804;2023-02-04T14:35:30;10.00;94.80
8910;DHT22;4490;49.072;8.804;2023-02-04T14:37:56;10.00;95.00
8910;DHT22;4490;49.072;8.804;2023-02-04T14:40:23;9.90;95.40
8910;DHT22;4490;49.072;8.804;2023-02-04T14:42:48;9.90;96.10
8910;DHT22;4490;49.072;8.804;2023-02-04T14:45:14;9.90;96.90
8910;DHT22;4490;49.072;8.804;2023-02-04T14:47:40;9.80;96.50
8910;DHT22;4490;49.072;8.804;2023-02-04T14:50:10;9.80;95.70
8910;DHT22;4490;49.072;8.804;2023-02-04T14:52:35;9.80;94.60
8910;DHT22;4490;49.072;8.804;2023-02-04T14:55:01;9.80;94.30
8910;DHT22;4490;49.072;8.804;2023-02-04T14:57:27;9.80;94.10
8910;DHT22;4490;49.072;8.804;2023-02-04T14:59:52;9.80;94.10
8910;DHT22;4490;49.072;8.804;2023-02-04T15:02:18;9.70;94.30
8910;DHT22;4490;49.072;8.804;2023-02-04T15:04:44;9.70;93.70
8910;DHT22;4490;49.072;8.804;2023-02-04T15:07:11;9.80;93.30
8910;DHT22;4490;49.072;8.804;2023-02-04T15:09:37;9.80;93.00
8910;DHT22;4490;49.072;8.804;2023-02-04T15:12:04;9.80;92.50
8910;DHT22;4490;49.072;8.804;2023-02-04T15:14:30;9.80;92.50
8910;DHT22;4490;49.072;8.804;2023-02-04T15:16:56;9.80;91.90
8910;DHT22;4490;49.072;8.804;2023-02-04T15:19:21;9.70;91.90
8910;DHT22;4490;49.072;8.804;2023-02-04T15:21:50;9.70;91.90
8910;DHT22;4490;49.072;8.804;2023-02-04T15:24:18;9.70;91.90
8910;DHT22;4490;49.072;8.804;2023-02-04T15:26:44;9.60;91.70
8910;DHT22;4490;49.072;8.804;2023-02-04T15:29:10;9.50;91.90
8910;DHT22;4490;49.072;8.804;2023-02-04T15:31:36;9.50;92.60
8910;DHT22;4490;49.072;8.804;2023-02-04T15:34:02;9.50;93.10
8910;DHT22;4490;49.072;8.804;2023-02-04T15:36:27;9.40;93.60
8910;DHT22;4490;49.072;8.804;2023-02-04T15:38:53;9.40;94.10
8910;DHT22;4490;49.072;8.804;2023-02-04T15:41:18;9.30;94.60
8910;DHT22;4490;49.072;8.804;2023-02-04T15:43:44;9.30;95.00
8910;DHT22;4490;49.072;8.804;2023-02-04T15:46:10;9.20;95.20
8910;DHT22;4490;49.072;8.804;2023-02-04T15:48:35;9.20;95.00
8910;DHT22;4490;49.072;8.804;2023-02-04T15:51:01;9.20;94.70
8910;DHT22;4490;49.072;8.804;2023-02-04T15:53:26;9.20;94.70
8910;DHT22;4490;49.072;8.804;2023-02-04T15:55:52;9.20;94.70
8910;DHT22;4490;49.072;8.804;2023-02-04T15:58:17;9.20;94.40
8910;DHT22;4490;49.072;8.804;2023-02-04T16:00:43;9.20;94.10
8910;DHT22;4490;49.072;8.804;2023-02-04T16:03:09;9.10;93.50
8910;DHT22;4490;49.072;8.804;2023-02-04T16:05:34;9.10;93.20
8910;DHT22;4490;49.072;8.804;2023-02-04T16:08:00;9.00;93.20
8910;DHT22;4490;49.072;8.804;2023-02-04T16:10:26;9.00;93.70
8910;DHT22;4490;49.072;8.804;2023-02-04T16:12:52;8.90;94.30
8910;DHT22;4490;49.072;8.804;2023-02-04T16:15:21;8.80;94.30
8910;DHT22;4490;49.072;8.804;2023-02-04T16:17:47;8.80;94.80
8910;DHT22;4490;49.072;8.804;2023-02-04T16:20:13;8.70;94.70
8910;DHT22;4490;49.072;8.804;2023-02-04T16:22:38;8.60;95.00
8910;DHT22;4490;49.072;8.804;2023-02-04T16:25:05;8.50;95.20
8910;DHT22;4490;49.072;8.804;2023-02-04T16:27:31;8.50;95.70
8910;DHT22;4490;49.072;8.804;2023-02-04T16:29:58;8.40;96.00